createdAt,value
2018-05-13T00:00:41.775Z,60.29
2018-05-13T00:03:12.738Z,60.64
2018-05-13T00:05:43.716Z,61.49
2018-05-13T00:08:13.177Z,61.52
2018-05-13T00:10:44.191Z,61.57
2018-05-13T00:13:15.647Z,62.72
2018-05-13T00:15:46.762Z,62.78
2018-05-13T00:18:17.110Z,62.96
2018-05-13T00:20:48.131Z,63.27
2018-05-13T00:23:20.903Z,63.90
2018-05-13T00:25:50.480Z,64.16
2018-05-13T00:28:21.096Z,64.40
2018-05-13T00:30:52.109Z,64.45
2018-05-13T00:33:22.958Z,64.39
2018-05-13T00:35:53.848Z,64.56
2018-05-13T00:38:25.056Z,64.92
2018-05-13T00:40:55.562Z,65.44
2018-05-13T00:43:26.602Z,65.77
2018-05-13T00:45:57.840Z,65.80
2018-05-13T00:48:28.755Z,65.97
2018-05-13T00:50:59.287Z,66.15
2018-05-13T00:53:30.614Z,66.30
2018-05-13T00:56:01.423Z,66.34
2018-05-13T00:58:32.656Z,66.53
2018-05-13T01:01:01.944Z,66.50
2018-05-13T01:03:31.225Z,66.74
2018-05-13T01:06:02.464Z,66.87
2018-05-13T01:08:32.084Z,66.99
2018-05-13T01:11:02.231Z,67.25
2018-05-13T01:13:31.388Z,67.61
2018-05-13T01:16:02.188Z,67.85
2018-05-13T01:18:31.376Z,68.80
2018-05-13T01:21:02.321Z,69.30
2018-05-13T01:23:33.735Z,70.23
2018-05-13T01:26:04.593Z,71.37
2018-05-13T01:28:33.393Z,69.38
2018-05-13T01:31:04.403Z,68.92
2018-05-13T01:33:33.386Z,70.27
2018-05-13T01:36:04.337Z,71.42
2018-05-13T01:38:34.452Z,70.71
2018-05-13T01:41:05.435Z,70.16
2018-05-13T01:43:34.623Z,70.45
2018-05-13T01:46:03.920Z,70.62
2018-05-13T01:48:33.217Z,70.29
2018-05-13T01:51:04.365Z,70.10
2018-05-13T01:53:35.495Z,69.20
2018-05-13T01:56:05.101Z,68.24
2018-05-13T01:58:34.934Z,68.33
2018-05-13T02:01:05.634Z,68.55
2018-05-13T02:03:36.061Z,69.14
2018-05-13T02:06:05.439Z,69.91
2018-05-13T02:08:36.386Z,71.37
2018-05-13T02:11:06.783Z,69.73
2018-05-13T02:13:35.716Z,69.50
2018-05-13T02:16:07.147Z,70.05
2018-05-13T02:18:38.400Z,71.25
2018-05-13T02:21:08.054Z,69.98
2018-05-13T02:23:38.368Z,68.83
2018-05-13T02:26:10.270Z,68.09
2018-05-13T02:28:39.761Z,68.00
2018-05-13T02:31:09.212Z,69.55
2018-05-13T02:33:40.228Z,70.09
2018-05-13T02:36:11.006Z,69.88
2018-05-13T02:38:41.955Z,69.35
2018-05-13T02:41:10.808Z,68.34
2018-05-13T02:43:41.757Z,69.36
2018-05-13T02:46:12.954Z,70.14
2018-05-13T02:48:42.451Z,70.92
2018-05-13T02:51:11.213Z,71.73
2018-05-13T02:53:42.258Z,71.96
2018-05-13T02:56:12.100Z,71.74
2018-05-13T02:58:42.595Z,72.54
2018-05-13T03:01:14.924Z,73.05
2018-05-13T03:03:44.267Z,72.02
2018-05-13T03:06:13.751Z,71.30
2018-05-13T03:08:43.053Z,72.34
2018-05-13T03:11:12.382Z,73.41
2018-05-13T03:13:41.641Z,72.69
2018-05-13T03:16:12.618Z,72.19
2018-05-13T03:18:43.568Z,73.32
2018-05-13T03:21:12.836Z,73.84
2018-05-13T03:23:43.746Z,72.53
2018-05-13T03:26:15.322Z,73.76
2018-05-13T03:28:46.121Z,73.79
2018-05-13T03:31:17.531Z,72.89
2018-05-13T03:33:48.918Z,72.95
2018-05-13T03:36:18.326Z,73.66
2018-05-13T03:38:49.212Z,74.32
2018-05-13T03:41:18.678Z,74.59
2018-05-13T03:43:49.385Z,74.25
2018-05-13T03:46:18.672Z,73.80
2018-05-13T03:48:49.294Z,73.49
2018-05-13T03:51:20.578Z,72.68
2018-05-13T03:53:49.988Z,72.79
2018-05-13T03:56:19.562Z,72.97
2018-05-13T03:58:50.277Z,72.56
2018-05-13T04:01:20.970Z,72.64
2018-05-13T04:03:50.498Z,73.55
2018-05-13T04:06:20.982Z,74.93
2018-05-13T04:09:52.696Z,76.91
2018-05-13T04:13:14.728Z,75.64
2018-05-13T04:15:45.997Z,74.60
2018-05-13T04:18:15.382Z,74.40
2018-05-13T04:20:46.767Z,74.61
2018-05-13T04:23:18.563Z,74.52
2018-05-13T04:25:49.304Z,74.73
2018-05-13T04:28:19.788Z,73.25
2018-05-13T04:30:51.340Z,73.96
2018-05-13T04:33:21.842Z,74.17
2018-05-13T04:35:50.870Z,74.23
2018-05-13T04:38:20.782Z,74.64
2018-05-13T04:40:52.140Z,73.65
2018-05-13T04:43:22.083Z,73.17
2018-05-13T04:45:53.080Z,73.42
2018-05-13T04:48:23.758Z,72.39
2018-05-13T04:50:53.458Z,71.73
2018-05-13T04:53:24.337Z,69.45
2018-05-13T04:55:56.309Z,68.09
2018-05-13T04:58:26.225Z,68.29
2018-05-13T05:00:57.533Z,68.54
2018-05-13T05:03:28.236Z,68.63
2018-05-13T05:05:59.250Z,69.43
2018-05-13T05:08:30.132Z,69.60
2018-05-13T05:10:59.535Z,69.23
2018-05-13T05:13:28.713Z,69.02
2018-05-13T05:16:00.129Z,69.71
2018-05-13T05:18:30.149Z,69.51
2018-05-13T05:21:01.083Z,70.00
2018-05-13T05:23:31.004Z,70.13
2018-05-13T05:26:01.890Z,69.46
2018-05-13T05:28:31.295Z,69.37
2018-05-13T05:31:00.714Z,69.49
2018-05-13T05:33:29.622Z,68.16
2018-05-13T05:35:58.986Z,68.13
2018-05-13T05:38:29.611Z,67.84
2018-05-13T05:41:00.419Z,68.68
2018-05-13T05:43:29.866Z,68.95
2018-05-13T05:45:58.988Z,69.46
2018-05-13T05:48:29.883Z,69.64
2018-05-13T05:50:58.982Z,70.00
2018-05-13T05:53:29.677Z,70.20
2018-05-13T05:55:58.987Z,70.29
2018-05-13T05:58:29.809Z,69.88
2018-05-13T06:00:59.075Z,69.60
2018-05-13T06:03:30.034Z,69.79
2018-05-13T06:06:00.810Z,69.71
2018-05-13T06:08:32.060Z,69.42
2018-05-13T06:11:02.709Z,69.44
2018-05-13T06:13:34.123Z,69.83
2018-05-13T06:16:05.501Z,69.71
2018-05-13T06:18:36.109Z,69.25
2018-05-13T06:21:06.473Z,69.27
2018-05-13T06:23:35.922Z,69.06
2018-05-13T06:26:04.799Z,68.26
2018-05-13T06:28:34.053Z,69.20
2018-05-13T06:31:03.447Z,68.86
2018-05-13T06:33:34.274Z,67.91
2018-05-13T06:36:05.093Z,68.58
2018-05-13T06:38:35.791Z,68.73
2018-05-13T06:41:05.110Z,69.19
2018-05-13T06:43:34.443Z,71.75
2018-05-13T06:46:05.700Z,74.08
2018-05-13T06:48:37.097Z,73.94
2018-05-13T06:51:08.019Z,75.68
2018-05-13T06:53:39.169Z,75.94
2018-05-13T06:56:09.251Z,78.28
2018-05-13T06:58:40.502Z,79.30
2018-05-13T07:01:10.767Z,78.76
2018-05-13T07:03:42.093Z,77.84
2018-05-13T07:06:11.882Z,79.02
2018-05-13T07:08:41.643Z,78.10
2018-05-13T07:11:12.341Z,77.43
2018-05-13T07:13:43.002Z,77.96
2018-05-13T07:16:12.756Z,77.29
2018-05-13T07:18:43.946Z,78.05
2018-05-13T07:21:13.100Z,77.82
2018-05-13T07:23:43.862Z,76.98
2018-05-13T07:26:15.689Z,78.20
2018-05-13T07:28:46.427Z,78.97
2018-05-13T07:31:16.060Z,78.74
2018-05-13T07:33:45.179Z,79.54
2018-05-13T07:36:14.658Z,78.99
2018-05-13T07:38:43.963Z,79.22
2018-05-13T07:41:14.670Z,78.55
2018-05-13T07:43:45.961Z,78.97
2018-05-13T07:46:17.205Z,78.96
2018-05-13T07:48:47.055Z,78.95
2018-05-13T07:51:18.227Z,77.30
2018-05-13T07:53:47.691Z,78.75
2018-05-13T07:56:17.560Z,77.38
2018-05-13T07:58:47.013Z,76.77
2018-05-13T08:01:16.227Z,76.83
2018-05-13T08:03:45.497Z,76.66
2018-05-13T08:06:15.119Z,77.22
2018-05-13T08:08:45.740Z,76.40
2018-05-13T08:11:15.595Z,75.40
2018-05-13T08:13:44.845Z,74.79
2018-05-13T08:16:14.335Z,75.63
2018-05-13T08:18:43.836Z,73.69
2018-05-13T08:21:15.068Z,73.86
2018-05-13T08:23:46.514Z,73.24
2018-05-13T08:26:18.038Z,73.27
2018-05-13T08:28:47.386Z,75.35
2018-05-13T08:31:18.366Z,73.37
2018-05-13T08:33:47.606Z,73.37
2018-05-13T08:36:18.365Z,73.22
2018-05-13T08:38:49.587Z,73.11
2018-05-13T08:41:19.072Z,72.34
2018-05-13T08:43:50.113Z,71.65
2018-05-13T08:46:20.877Z,72.02
2018-05-13T08:48:51.084Z,73.20
2018-05-13T08:51:22.003Z,74.41
2018-05-13T08:53:52.796Z,73.81
2018-05-13T08:56:23.394Z,74.38
2018-05-13T08:58:53.118Z,73.56
2018-05-13T09:01:24.408Z,73.94
2018-05-13T09:03:55.339Z,74.26
2018-05-13T09:06:24.154Z,73.88
2018-05-13T09:08:56.108Z,73.85
2018-05-13T09:11:26.982Z,72.65
2018-05-13T09:13:56.402Z,72.05
2018-05-13T09:16:26.852Z,71.30
2018-05-13T09:18:58.263Z,73.13
2018-05-13T09:21:29.220Z,71.70
2018-05-13T09:24:01.111Z,71.36
2018-05-13T09:26:31.720Z,72.48
2018-05-13T09:29:02.544Z,71.00
2018-05-13T09:31:32.377Z,71.74
2018-05-13T09:34:02.299Z,71.84
2018-05-13T09:36:31.624Z,71.31
2018-05-13T09:39:01.153Z,72.48
2018-05-13T09:41:32.551Z,70.15
2018-05-13T09:44:03.416Z,71.58
2018-05-13T09:46:34.517Z,69.76
2018-05-13T09:49:04.937Z,69.27
2018-05-13T09:51:34.219Z,67.80
2018-05-13T09:54:05.155Z,69.15
2018-05-13T09:56:36.043Z,67.71
2018-05-13T09:59:06.914Z,67.11
2018-05-13T10:01:38.439Z,66.84
2018-05-13T10:04:09.249Z,66.03
2018-05-13T10:06:40.715Z,67.06
2018-05-13T10:09:10.352Z,67.70
2018-05-13T10:11:40.996Z,67.92
2018-05-13T10:14:11.475Z,68.72
2018-05-13T10:16:42.142Z,68.92
2018-05-13T10:19:12.987Z,69.43
2018-05-13T10:21:43.630Z,69.51
2018-05-13T10:24:14.491Z,70.06
2018-05-13T10:26:45.619Z,70.70
2018-05-13T10:29:15.328Z,69.24
2018-05-13T10:31:45.273Z,68.97
2018-05-13T10:34:16.200Z,68.54
2018-05-13T10:36:46.095Z,68.61
2018-05-13T10:39:15.473Z,68.54
2018-05-13T10:41:44.895Z,68.60
2018-05-13T10:44:16.242Z,68.20
2018-05-13T10:46:46.937Z,68.13
2018-05-13T10:49:18.418Z,68.63
2018-05-13T10:51:49.268Z,69.40
2018-05-13T10:54:18.357Z,69.28
2018-05-13T10:56:47.697Z,69.70
2018-05-13T10:59:18.566Z,71.37
2018-05-13T11:01:48.343Z,71.40
2018-05-13T11:04:19.711Z,70.58
2018-05-13T11:06:49.565Z,73.28
2018-05-13T11:09:19.291Z,72.80
2018-05-13T11:11:50.052Z,71.87
2018-05-13T11:14:20.693Z,73.09
2018-05-13T11:16:50.224Z,72.83
2018-05-13T11:19:21.614Z,73.13
2018-05-13T11:21:52.548Z,72.54
2018-05-13T11:24:23.407Z,73.84
2018-05-13T11:26:53.264Z,74.34
2018-05-13T11:29:22.916Z,73.19
2018-05-13T11:31:52.276Z,73.28
2018-05-13T11:34:23.146Z,72.96
2018-05-13T11:36:52.430Z,72.71
2018-05-13T11:39:23.299Z,72.26
2018-05-13T11:41:53.963Z,72.58
2018-05-13T11:44:24.897Z,72.51
2018-05-13T11:46:55.228Z,72.11
2018-05-13T11:49:24.480Z,72.29
2018-05-13T11:51:55.170Z,71.79
2018-05-13T11:54:26.694Z,73.43
2018-05-13T11:56:56.039Z,71.50
2018-05-13T11:59:25.626Z,75.35
2018-05-13T12:01:57.162Z,74.31
2018-05-13T12:04:28.241Z,72.83
2018-05-13T12:06:57.779Z,73.50
2018-05-13T12:09:27.004Z,72.83
2018-05-13T12:11:56.050Z,74.71
2018-05-13T12:14:25.317Z,74.88
2018-05-13T12:16:56.091Z,75.04
2018-05-13T12:19:25.529Z,73.03
2018-05-13T12:21:56.206Z,74.33
2018-05-13T12:24:25.675Z,73.45
2018-05-13T12:26:56.533Z,74.45
2018-05-13T12:29:26.274Z,72.68
2018-05-13T12:31:55.715Z,71.73
2018-05-13T12:34:26.325Z,74.83
2018-05-13T12:36:56.578Z,73.77
2018-05-13T12:39:25.958Z,73.40
2018-05-13T12:41:56.633Z,72.35
2018-05-13T12:44:27.503Z,75.06
2018-05-13T12:46:56.707Z,75.12
2018-05-13T12:49:26.432Z,74.96
2018-05-13T12:51:55.826Z,73.66
2018-05-13T12:54:26.511Z,74.20
2018-05-13T12:56:55.035Z,74.65
2018-05-13T12:59:24.415Z,75.13
2018-05-13T13:01:55.393Z,73.94
2018-05-13T13:04:24.578Z,74.78
2018-05-13T13:06:55.206Z,75.53
2018-05-13T13:09:24.540Z,77.06
2018-05-13T13:11:54.908Z,76.21
2018-05-13T13:14:24.041Z,75.47
2018-05-13T13:16:54.020Z,73.72
2018-05-13T13:19:23.124Z,72.85
2018-05-13T13:21:53.929Z,72.99
2018-05-13T13:24:24.730Z,74.29
2018-05-13T13:26:54.119Z,75.48
2018-05-13T13:29:24.179Z,73.84
2018-05-13T13:31:53.688Z,74.32
2018-05-13T13:34:24.620Z,75.65
2018-05-13T13:36:56.513Z,74.72
2018-05-13T13:39:26.082Z,75.18
2018-05-13T13:41:55.272Z,78.71
2018-05-13T13:44:24.391Z,74.71
2018-05-13T13:46:53.854Z,76.03
2018-05-13T13:49:23.017Z,75.56
2018-05-13T13:51:53.669Z,75.61
2018-05-13T13:54:24.412Z,75.02
2018-05-13T13:56:53.667Z,75.93
2018-05-13T13:59:22.794Z,75.44
2018-05-13T14:01:53.962Z,75.93
2018-05-13T14:04:23.782Z,74.74
2018-05-13T14:06:54.723Z,78.49
2018-05-13T14:09:25.937Z,75.75
2018-05-13T14:11:56.654Z,75.75
2018-05-13T14:14:27.368Z,76.64
2018-05-13T14:17:01.112Z,76.49
2018-05-13T14:19:30.418Z,77.10
2018-05-13T14:22:01.255Z,77.66
2018-05-13T14:24:32.029Z,76.58
2018-05-13T14:27:01.299Z,77.78
2018-05-13T14:29:31.787Z,76.52
2018-05-13T14:32:02.454Z,76.46
2018-05-13T14:34:32.738Z,77.65
2018-05-13T14:37:04.090Z,77.96
2018-05-13T14:39:33.817Z,75.56
2018-05-13T14:42:04.646Z,77.51
2018-05-13T14:44:34.548Z,77.20
2018-05-13T14:47:05.288Z,77.34
2018-05-13T14:49:34.685Z,78.89
2018-05-13T14:52:05.343Z,77.86
2018-05-13T14:54:35.415Z,77.12
2018-05-13T14:57:06.101Z,79.14
2018-05-13T14:59:36.633Z,78.26
2018-05-13T15:02:08.287Z,77.91
2018-05-13T15:04:38.867Z,77.23
2018-05-13T15:07:09.482Z,77.62
2018-05-13T15:09:40.778Z,78.21
2018-05-13T15:12:11.549Z,77.08
2018-05-13T15:14:40.667Z,77.27
2018-05-13T15:17:09.930Z,79.16
2018-05-13T15:19:40.611Z,79.01
2018-05-13T15:22:16.837Z,79.60
2018-05-13T15:24:47.256Z,79.70
2018-05-13T15:27:16.453Z,79.68
2018-05-13T15:29:47.472Z,80.15
2018-05-13T15:32:18.426Z,79.27
2018-05-13T15:34:47.831Z,78.36
2018-05-13T15:37:18.619Z,79.16
2018-05-13T15:39:49.950Z,80.70
2018-05-13T15:42:19.113Z,79.41
2018-05-13T15:44:49.635Z,81.72
2018-05-13T15:47:18.688Z,78.73
2018-05-13T15:49:49.844Z,79.14
2018-05-13T15:52:20.453Z,79.74
2018-05-13T15:54:51.595Z,80.53
2018-05-13T15:57:22.476Z,78.37
2018-05-13T15:59:53.831Z,78.98
2018-05-13T16:02:25.135Z,79.84
2018-05-13T16:04:54.906Z,79.02
2018-05-13T16:07:24.067Z,79.05
2018-05-13T16:09:54.120Z,80.44
2018-05-13T16:12:23.407Z,80.03
2018-05-13T16:14:54.163Z,79.46
2018-05-13T16:17:25.075Z,80.06
2018-05-13T16:19:54.345Z,79.38
2018-05-13T16:22:25.246Z,79.33
2018-05-13T16:24:54.595Z,79.53
2018-05-13T16:27:25.540Z,79.03
2018-05-13T16:29:55.168Z,79.48
2018-05-13T16:32:26.058Z,78.64
2018-05-13T16:34:55.643Z,78.70
2018-05-13T16:37:26.429Z,80.12
2018-05-13T16:39:55.721Z,79.03
2018-05-13T16:42:24.850Z,79.19
2018-05-13T16:44:56.038Z,78.46
2018-05-13T16:47:27.060Z,78.88
2018-05-13T16:49:57.901Z,78.51
2018-05-13T16:52:26.877Z,78.77
2018-05-13T16:54:57.905Z,78.71
2018-05-13T16:57:28.674Z,78.64
2018-05-13T16:59:59.630Z,79.63
2018-05-13T17:02:28.962Z,78.53
2018-05-13T17:04:59.606Z,78.55
2018-05-13T17:07:29.626Z,79.19
2018-05-13T17:09:59.056Z,79.40
2018-05-13T17:12:28.251Z,79.07
2018-05-13T17:14:59.535Z,79.89
2018-05-13T17:17:29.706Z,80.53
2018-05-13T17:20:00.977Z,79.37
2018-05-13T17:22:31.866Z,79.41
2018-05-13T17:25:03.319Z,79.91
2018-05-13T17:27:34.382Z,79.67
2018-05-13T17:30:03.684Z,79.12
2018-05-13T17:32:33.544Z,78.97
2018-05-13T17:35:04.160Z,78.56
2018-05-13T17:37:34.613Z,79.50
2018-05-13T17:40:04.370Z,80.16
2018-05-13T17:42:36.102Z,80.29
2018-05-13T17:45:06.642Z,80.14
2018-05-13T17:47:36.160Z,80.02
2018-05-13T17:50:05.798Z,80.01
2018-05-13T17:52:37.815Z,79.19
2018-05-13T17:55:08.987Z,80.71
2018-05-13T17:57:38.916Z,79.83
2018-05-13T18:00:09.447Z,79.29
2018-05-13T18:02:40.861Z,80.51
2018-05-13T18:05:11.809Z,80.19
2018-05-13T18:07:42.695Z,81.26
2018-05-13T18:10:13.944Z,80.49
2018-05-13T18:12:43.144Z,81.25
2018-05-13T18:15:13.780Z,81.29
2018-05-13T18:17:43.295Z,81.90
2018-05-13T18:20:13.818Z,82.02
2018-05-13T18:22:44.953Z,82.40
2018-05-13T18:25:14.924Z,82.05
2018-05-13T18:27:44.367Z,81.37
2018-05-13T18:30:15.196Z,82.17
2018-05-13T18:32:43.768Z,82.35
2018-05-13T18:35:14.524Z,82.64
2018-05-13T18:37:46.213Z,81.26
2018-05-13T18:40:15.713Z,81.55
2018-05-13T18:42:46.223Z,81.00
2018-05-13T18:45:17.027Z,80.95
2018-05-13T18:47:46.257Z,80.53
2018-05-13T18:50:15.419Z,82.02
2018-05-13T18:52:46.458Z,82.04
2018-05-13T18:55:16.202Z,82.20
2018-05-13T18:57:45.314Z,80.89
2018-05-13T19:00:15.076Z,80.72
2018-05-13T19:02:45.971Z,80.71
2018-05-13T19:05:17.688Z,80.57
2018-05-13T19:07:46.847Z,81.51
2018-05-13T19:10:16.071Z,81.90
2018-05-13T19:12:47.499Z,81.15
2018-05-13T19:15:17.245Z,81.49
2018-05-13T19:17:46.659Z,81.18
2018-05-13T19:20:17.431Z,81.45
2018-05-13T19:22:46.958Z,81.75
2018-05-13T19:25:18.408Z,81.42
2018-05-13T19:27:49.026Z,81.85
2018-05-13T19:30:19.962Z,81.96
2018-05-13T19:32:50.704Z,81.72
2018-05-13T19:35:21.494Z,80.90
2018-05-13T19:37:51.460Z,81.07
2018-05-13T19:40:22.080Z,81.11
2018-05-13T19:42:51.770Z,81.88
2018-05-13T19:45:21.190Z,81.51
2018-05-13T19:47:50.627Z,81.91
2018-05-13T19:50:21.281Z,82.63
2018-05-13T19:52:52.674Z,82.40
2018-05-13T19:55:23.055Z,82.29
2018-05-13T19:57:52.170Z,81.64
2018-05-13T20:00:23.432Z,81.94
2018-05-13T20:02:54.150Z,82.14
2018-05-13T20:05:23.445Z,82.54
2018-05-13T20:07:54.753Z,82.40
2018-05-13T20:10:25.636Z,83.36
2018-05-13T20:12:55.492Z,82.81
2018-05-13T20:15:26.096Z,83.07
2018-05-13T20:17:55.934Z,83.44
2018-05-13T20:20:25.712Z,83.02
2018-05-13T20:23:38.046Z,83.11
2018-05-13T20:26:08.657Z,82.80
2018-05-13T20:28:40.104Z,82.77
2018-05-13T20:31:11.065Z,82.96
2018-05-13T20:33:41.785Z,82.28
2018-05-13T20:36:11.594Z,82.69
2018-05-13T20:38:42.782Z,82.77
2018-05-13T20:41:14.380Z,83.22
2018-05-13T20:43:43.496Z,83.10
2018-05-13T20:46:13.100Z,82.55
2018-05-13T20:48:43.963Z,83.22
2018-05-13T20:51:13.803Z,82.97
2018-05-13T20:53:43.327Z,82.83
2018-05-13T20:56:13.958Z,82.67
2018-05-13T20:58:45.890Z,82.92
2018-05-13T21:01:16.363Z,82.63
2018-05-13T21:03:47.286Z,82.38
2018-05-13T21:06:18.301Z,81.82
2018-05-13T21:08:48.267Z,82.02
2018-05-13T21:11:17.748Z,83.26
2018-05-13T21:13:48.567Z,82.44
2018-05-13T21:16:19.086Z,82.33
2018-05-13T21:18:49.925Z,82.79
2018-05-13T21:21:20.391Z,82.71
2018-05-13T21:23:50.027Z,82.48
2018-05-13T21:26:19.717Z,82.85
2018-05-13T21:28:50.509Z,82.48
2018-05-13T21:31:22.071Z,82.53
2018-05-13T21:33:52.934Z,82.55
2018-05-13T21:36:23.979Z,82.48
2018-05-13T21:38:55.226Z,83.60
2018-05-13T21:41:26.622Z,83.02
2018-05-13T21:43:57.913Z,83.46
2018-05-13T21:46:27.361Z,82.67
2018-05-13T21:48:56.833Z,82.36
2018-05-13T21:51:27.478Z,82.62
2018-05-13T21:53:56.717Z,83.55
2018-05-13T21:56:27.706Z,83.84
2018-05-13T21:58:57.683Z,83.75
2018-05-13T22:01:28.749Z,82.93
2018-05-13T22:03:59.814Z,83.88
2018-05-13T22:06:29.302Z,83.52
2018-05-13T22:09:00.650Z,83.22
2018-05-13T22:11:31.621Z,83.37
2018-05-13T22:14:01.429Z,82.65
2018-05-13T22:16:31.321Z,83.42
2018-05-13T22:19:01.261Z,83.15
2018-05-13T22:21:31.910Z,83.42
2018-05-13T22:24:02.585Z,83.99
2018-05-13T22:26:33.222Z,84.65
2018-05-13T22:29:02.520Z,83.74
2018-05-13T22:31:31.719Z,83.70
2018-05-13T22:34:01.928Z,83.76
2018-05-13T22:36:31.161Z,83.88
2018-05-13T22:39:00.608Z,83.36
2018-05-13T22:41:31.611Z,83.87
2018-05-13T22:44:01.150Z,83.69
2018-05-13T22:46:32.190Z,84.37
2018-05-13T22:49:01.065Z,83.36
2018-05-13T22:51:30.278Z,83.66
2018-05-13T22:53:59.668Z,83.60
2018-05-13T22:56:30.305Z,83.29
2018-05-13T22:59:04.695Z,84.08
2018-05-13T23:01:35.884Z,82.83
2018-05-13T23:04:06.755Z,82.75
2018-05-13T23:06:39.408Z,83.15
2018-05-13T23:09:10.303Z,83.64
2018-05-13T23:11:39.452Z,83.37
2018-05-13T23:14:09.373Z,82.47
2018-05-13T23:16:39.483Z,83.03
2018-05-13T23:19:10.234Z,82.98
2018-05-13T23:21:40.881Z,82.40
2018-05-13T23:24:11.555Z,82.19
2018-05-13T23:26:41.000Z,81.99
2018-05-13T23:29:11.630Z,82.97
2018-05-13T23:31:41.152Z,82.85
2018-05-13T23:34:12.066Z,82.67
2018-05-13T23:36:41.558Z,83.12
2018-05-13T23:39:11.266Z,83.67
2018-05-13T23:41:42.102Z,84.13
2018-05-13T23:44:11.233Z,84.00
2018-05-13T23:46:41.636Z,84.31
2018-05-13T23:49:10.838Z,84.06
2018-05-13T23:51:39.961Z,84.49
2018-05-13T23:54:10.968Z,83.68
2018-05-13T23:56:41.408Z,83.96
2018-05-13T23:59:11.188Z,84.04
